Time;durP1;ratioP1;P1;durP2;ratioP2;P2;SDS_P1;SDS_P2;PMS_P1;PMS_P2;Temp;Humidity;BMP_temperature;BMP_pressure;BME280_temperature;BME280_humidity;BME280_pressure;Samples;Min_cycle;Max_cycle;Signal;HPM_P1;HPM_P2
2023/08/31 00:00:12;;;;;;;2.35;1.70;;;;;;;;;;5096218;28;20040;-57
2023/08/31 00:02:39;;;;;;;2.15;1.10;;;;;;;;;;5105884;28;20430;-57
2023/08/31 00:05:05;;;;;;;2.70;1.70;;;;;;;;;;5103894;28;20027;-57
2023/08/31 00:07:32;;;;;;;3.70;1.65;;;;;;;;;;5110428;28;20038;-56
2023/08/31 00:09:58;;;;;;;1.92;1.40;;;;;;;;;;5113535;28;20572;-56
2023/08/31 00:12:24;;;;;;;2.45;1.25;;;;;;;;;;5118069;28;20031;-57
2023/08/31 00:14:50;;;;;;;1.92;1.15;;;;;;;;;;5091419;28;20493;-56
2023/08/31 00:17:17;;;;;;;3.83;1.20;;;;;;;;;;5117044;28;20031;-57
2023/08/31 00:19:44;;;;;;;1.15;1.10;;;;;;;;;;5089528;28;20024;-56
2023/08/31 00:22:10;;;;;;;2.33;1.33;;;;;;;;;;5095232;28;20030;-55
2023/08/31 00:24:36;;;;;;;3.55;1.77;;;;;;;;;;5107582;28;20035;-55
2023/08/31 00:27:03;;;;;;;2.30;1.70;;;;;;;;;;5102295;28;20074;-56
2023/08/31 00:29:29;;;;;;;1.45;1.35;;;;;;;;;;5086255;28;20035;-57
2023/08/31 00:31:55;;;;;;;4.85;1.55;;;;;;;;;;5091686;28;20090;-55
2023/08/31 00:34:21;;;;;;;3.85;1.67;;;;;;;;;;5102402;28;20036;-56
2023/08/31 00:36:48;;;;;;;2.53;1.45;;;;;;;;;;5091722;28;20032;-56
2023/08/31 00:39:14;;;;;;;3.17;1.60;;;;;;;;;;5089310;28;20024;-55
2023/08/31 00:41:40;;;;;;;1.63;1.52;;;;;;;;;;5106075;28;20035;-56
2023/08/31 00:44:07;;;;;;;2.20;1.88;;;;;;;;;;5101119;28;20040;-55
2023/08/31 00:46:33;;;;;;;4.82;1.70;;;;;;;;;;5104917;28;20150;-58
2023/08/31 00:48:59;;;;;;;4.57;1.60;;;;;;;;;;5089604;28;20035;-56
2023/08/31 00:51:25;;;;;;;5.90;1.50;;;;;;;;;;5089407;28;20076;-55
2023/08/31 00:53:55;;;;;;;2.63;1.38;;;;;;;;;;5095625;28;20032;-58
2023/08/31 00:56:22;;;;;;;2.97;1.42;;;;;;;;;;5119143;28;20028;-56
2023/08/31 00:58:48;;;;;;;3.95;1.92;;;;;;;;;;5117853;28;20043;-54
2023/08/31 01:01:27;;;;;;;5.50;1.70;;;;;;;;;;5119259;28;20555;-56
2023/08/31 01:04:06;;;;;;;2.03;1.38;;;;;;;;;;5120383;27;20549;-56
2023/08/31 01:06:32;;;;;;;2.97;1.80;;;;;;;;;;5127846;27;20479;-56
2023/08/31 01:09:27;;;;;;;1.80;1.33;;;;;;;;;;5120882;27;20088;-56
2023/08/31 01:11:58;;;;;;;3.63;1.45;;;;;;;;;;5090043;27;20044;-55
2023/08/31 01:14:25;;;;;;;3.47;1.70;;;;;;;;;;5108909;27;20477;-57
2023/08/31 01:16:53;;;;;;;4.72;1.63;;;;;;;;;;5097881;27;20354;-55
2023/08/31 01:19:38;;;;;;;2.13;1.48;;;;;;;;;;5103392;28;20031;-55
2023/08/31 01:22:08;;;;;;;2.85;1.50;;;;;;;;;;5097767;28;20028;-57
2023/08/31 01:24:35;;;;;;;2.38;1.60;;;;;;;;;;5109809;27;20036;-57
2023/08/31 01:27:01;;;;;;;2.38;1.50;;;;;;;;;;5103798;28;20373;-57
2023/08/31 01:29:27;;;;;;;2.92;1.83;;;;;;;;;;5091512;28;20032;-57
2023/08/31 01:31:53;;;;;;;2.95;1.55;;;;;;;;;;5101027;27;20021;-57
2023/08/31 01:34:19;;;;;;;1.45;1.35;;;;;;;;;;5096598;28;20050;-55
2023/08/31 01:36:48;;;;;;;3.22;1.50;;;;;;;;;;5100436;27;20016;-56
2023/08/31 01:39:23;;;;;;;2.70;1.42;;;;;;;;;;5094719;28;20047;-53
2023/08/31 01:41:51;;;;;;;3.63;1.83;;;;;;;;;;5131653;27;20019;-55
2023/08/31 01:44:18;;;;;;;2.85;1.65;;;;;;;;;;5131473;27;20035;-55
2023/08/31 01:46:47;;;;;;;5.25;1.67;;;;;;;;;;5133471;27;20101;-55
2023/08/31 01:49:14;;;;;;;2.97;1.75;;;;;;;;;;5136279;27;20011;-54
2023/08/31 01:51:40;;;;;;;3.70;2.33;;;;;;;;;;5107278;27;20102;-56
2023/08/31 01:54:06;;;;;;;3.10;1.70;;;;;;;;;;5125214;27;20528;-56
2023/08/31 01:56:32;;;;;;;1.63;1.20;;;;;;;;;;5127692;27;20031;-56
2023/08/31 01:58:58;;;;;;;1.98;1.85;;;;;;;;;;5122340;27;20062;-57
2023/08/31 02:01:24;;;;;;;2.85;1.63;;;;;;;;;;5131954;27;20019;-57
2023/08/31 02:03:50;;;;;;;3.65;1.95;;;;;;;;;;5126864;27;20046;-55
2023/08/31 02:06:16;;;;;;;1.30;1.20;;;;;;;;;;5132920;27;20020;-55
2023/08/31 02:08:44;;;;;;;1.50;1.35;;;;;;;;;;5121343;27;20080;-54
2023/08/31 02:11:10;;;;;;;2.38;1.52;;;;;;;;;;5123812;27;20030;-56
2023/08/31 02:13:36;;;;;;;1.67;1.30;;;;;;;;;;5096810;28;20118;-57
2023/08/31 02:16:02;;;;;;;2.20;1.23;;;;;;;;;;5113783;27;20034;-55
2023/08/31 02:18:28;;;;;;;1.42;1.30;;;;;;;;;;5112973;28;20046;-56
2023/08/31 02:20:54;;;;;;;2.55;1.50;;;;;;;;;;5096808;28;20020;-57
2023/08/31 02:23:20;;;;;;;2.95;1.38;;;;;;;;;;5114443;27;20043;-55
2023/08/31 02:25:46;;;;;;;2.65;1.55;;;;;;;;;;5101484;28;20055;-54
2023/08/31 02:28:11;;;;;;;3.47;1.52;;;;;;;;;;5110542;28;20093;-54
2023/08/31 02:30:38;;;;;;;4.05;1.50;;;;;;;;;;5107925;27;20024;-57
2023/08/31 02:33:04;;;;;;;3.15;1.40;;;;;;;;;;5107836;27;20020;-55
2023/08/31 02:35:30;;;;;;;1.58;1.20;;;;;;;;;;5094350;28;20477;-57
2023/08/31 02:37:56;;;;;;;3.47;1.40;;;;;;;;;;5105510;27;20031;-56
2023/08/31 02:40:22;;;;;;;1.80;1.05;;;;;;;;;;5104643;28;20023;-56
2023/08/31 02:42:52;;;;;;;2.65;1.40;;;;;;;;;;5100737;28;20385;-58
2023/08/31 02:45:18;;;;;;;2.28;1.42;;;;;;;;;;5103710;27;20036;-55
2023/08/31 02:47:44;;;;;;;2.35;1.40;;;;;;;;;;5125184;27;20047;-56
2023/08/31 02:50:10;;;;;;;4.72;1.50;;;;;;;;;;5122535;27;20026;-58
2023/08/31 02:52:36;;;;;;;3.92;1.50;;;;;;;;;;5123994;27;20043;-56
2023/08/31 02:55:02;;;;;;;1.90;1.27;;;;;;;;;;5119521;27;20457;-55
2023/08/31 02:57:28;;;;;;;2.50;1.58;;;;;;;;;;5107949;28;20069;-55
2023/08/31 02:59:54;;;;;;;2.83;1.38;;;;;;;;;;5125058;27;20393;-55
2023/08/31 03:02:20;;;;;;;1.58;1.30;;;;;;;;;;5121950;27;20023;-55
2023/08/31 03:04:46;;;;;;;1.75;1.48;;;;;;;;;;5122076;27;20031;-56
2023/08/31 03:07:15;;;;;;;3.22;1.27;;;;;;;;;;5128338;27;20023;-52
2023/08/31 03:09:40;;;;;;;1.50;1.30;;;;;;;;;;5126038;27;20030;-56
2023/08/31 03:12:07;;;;;;;1.35;1.25;;;;;;;;;;5098441;27;20404;-55
2023/08/31 03:14:33;;;;;;;1.98;1.27;;;;;;;;;;5108357;28;20089;-57
2023/08/31 03:16:59;;;;;;;1.83;1.42;;;;;;;;;;5092936;28;20467;-54
2023/08/31 03:19:25;;;;;;;2.35;1.30;;;;;;;;;;5110500;27;20017;-57
2023/08/31 03:21:51;;;;;;;1.30;1.02;;;;;;;;;;5096129;27;20019;-56
2023/08/31 03:24:17;;;;;;;2.30;1.20;;;;;;;;;;5091751;28;20052;-55
2023/08/31 03:26:42;;;;;;;2.80;1.17;;;;;;;;;;5094246;28;20031;-54
2023/08/31 03:29:08;;;;;;;2.45;1.27;;;;;;;;;;5100225;28;20409;-54
2023/08/31 03:31:34;;;;;;;2.35;1.50;;;;;;;;;;5099325;28;20058;-55
2023/08/31 03:34:00;;;;;;;1.83;1.25;;;;;;;;;;5091342;28;20449;-55
2023/08/31 03:36:27;;;;;;;1.52;1.38;;;;;;;;;;5097126;27;20032;-56
2023/08/31 03:38:53;;;;;;;3.33;1.83;;;;;;;;;;5121609;27;20079;-54
2023/08/31 03:41:19;;;;;;;2.45;1.20;;;;;;;;;;5119327;27;20473;-54
2023/08/31 03:43:45;;;;;;;4.00;1.40;;;;;;;;;;5125928;27;20453;-57
2023/08/31 03:46:11;;;;;;;3.60;1.65;;;;;;;;;;5125541;27;20079;-56
2023/08/31 03:48:37;;;;;;;3.22;1.50;;;;;;;;;;5118771;27;20027;-56
2023/08/31 03:51:03;;;;;;;2.60;1.70;;;;;;;;;;5121351;27;20028;-55
2023/08/31 03:53:29;;;;;;;4.78;2.30;;;;;;;;;;5093683;28;20096;-53
2023/08/31 03:55:55;;;;;;;5.20;2.15;;;;;;;;;;5112141;27;20526;-58
2023/08/31 03:58:21;;;;;;;4.78;1.95;;;;;;;;;;5109052;27;20506;-55
2023/08/31 04:00:50;;;;;;;3.00;1.95;;;;;;;;;;5131938;27;20106;-56
2023/08/31 04:03:16;;;;;;;2.47;2.00;;;;;;;;;;5114908;28;20044;-54
2023/08/31 04:05:42;;;;;;;4.35;1.83;;;;;;;;;;5129688;28;20012;-56
2023/08/31 04:08:08;;;;;;;3.97;1.77;;;;;;;;;;5119782;28;20023;-55
2023/08/31 04:10:35;;;;;;;3.67;1.80;;;;;;;;;;5127895;28;20023;-57
2023/08/31 04:13:00;;;;;;;3.92;1.67;;;;;;;;;;5119165;28;20495;-55
2023/08/31 04:15:27;;;;;;;1.95;1.75;;;;;;;;;;5117144;28;20039;-57
2023/08/31 04:17:53;;;;;;;2.53;1.33;;;;;;;;;;5095398;28;20088;-57
2023/08/31 04:20:19;;;;;;;2.55;1.92;;;;;;;;;;5103429;28;20024;-56
2023/08/31 04:22:45;;;;;;;6.28;1.98;;;;;;;;;;5108476;28;20069;-55
2023/08/31 04:25:11;;;;;;;1.80;1.70;;;;;;;;;;5099267;28;20055;-54
2023/08/31 04:27:39;;;;;;;1.58;1.48;;;;;;;;;;5110560;28;20028;-54
2023/08/31 04:30:06;;;;;;;2.78;1.90;;;;;;;;;;5100371;28;20043;-53
2023/08/31 04:32:33;;;;;;;3.00;1.48;;;;;;;;;;5116662;28;20110;-56
2023/08/31 04:34:59;;;;;;;1.75;1.35;;;;;;;;;;5129048;28;20050;-57
2023/08/31 04:37:25;;;;;;;1.98;1.30;;;;;;;;;;5119311;28;20478;-55
2023/08/31 04:39:57;;;;;;;3.03;1.65;;;;;;;;;;5124166;27;20023;-58
2023/08/31 04:42:23;;;;;;;2.60;1.67;;;;;;;;;;5121811;27;20036;-56
2023/08/31 04:44:50;;;;;;;2.72;1.88;;;;;;;;;;5137216;27;20027;-56
2023/08/31 04:47:16;;;;;;;2.50;1.70;;;;;;;;;;5103627;28;20050;-57
2023/08/31 04:49:42;;;;;;;3.05;2.00;;;;;;;;;;5130372;27;20027;-56
2023/08/31 04:52:08;;;;;;;3.28;1.88;;;;;;;;;;5124171;27;20089;-56
2023/08/31 04:54:34;;;;;;;3.65;2.15;;;;;;;;;;5118061;27;20029;-54
2023/08/31 04:57:00;;;;;;;3.72;2.20;;;;;;;;;;5131683;27;20101;-54
2023/08/31 04:59:26;;;;;;;7.03;2.67;;;;;;;;;;5134943;27;20094;-56
2023/08/31 05:01:52;;;;;;;3.58;2.78;;;;;;;;;;5114126;27;20259;-56
2023/08/31 05:04:18;;;;;;;4.50;3.25;;;;;;;;;;5116778;27;20476;-55
2023/08/31 05:06:44;;;;;;;4.95;3.35;;;;;;;;;;5128025;27;20027;-57
2023/08/31 05:09:10;;;;;;;6.15;3.88;;;;;;;;;;5119834;27;20366;-56
2023/08/31 05:11:36;;;;;;;5.40;3.72;;;;;;;;;;5117783;27;20027;-56
2023/08/31 05:14:02;;;;;;;6.75;3.80;;;;;;;;;;5132259;27;20028;-56
2023/08/31 05:16:28;;;;;;;4.65;4.22;;;;;;;;;;5098170;27;20545;-54
2023/08/31 05:18:54;;;;;;;8.40;4.20;;;;;;;;;;5115250;27;20034;-56
2023/08/31 05:21:20;;;;;;;6.45;4.55;;;;;;;;;;5101380;28;20077;-55
2023/08/31 05:23:46;;;;;;;4.97;4.43;;;;;;;;;;5122072;27;20045;-57
2023/08/31 05:26:13;;;;;;;7.78;3.40;;;;;;;;;;5129353;27;20456;-55
2023/08/31 05:28:39;;;;;;;4.32;3.92;;;;;;;;;;5123011;27;20027;-57
2023/08/31 05:31:05;;;;;;;4.93;4.20;;;;;;;;;;5112726;27;20027;-54
2023/08/31 05:33:33;;;;;;;5.05;3.75;;;;;;;;;;5113713;27;20445;-56
2023/08/31 05:36:01;;;;;;;4.47;4.05;;;;;;;;;;5076944;27;20028;-57
2023/08/31 05:38:27;;;;;;;7.57;4.13;;;;;;;;;;5113592;27;20046;-55
2023/08/31 05:40:53;;;;;;;6.13;4.53;;;;;;;;;;5121943;27;20023;-54
2023/08/31 05:43:19;;;;;;;5.97;4.47;;;;;;;;;;5112587;27;20507;-56
2023/08/31 05:45:46;;;;;;;6.75;4.30;;;;;;;;;;5092994;28;20016;-55
2023/08/31 05:48:13;;;;;;;5.65;4.10;;;;;;;;;;5115031;27;20126;-56
2023/08/31 05:50:39;;;;;;;7.70;4.22;;;;;;;;;;5113923;27;20051;-56
2023/08/31 05:53:07;;;;;;;8.77;4.22;;;;;;;;;;5121537;27;20485;-54
2023/08/31 05:55:33;;;;;;;5.35;3.70;;;;;;;;;;5111586;27;20067;-53
2023/08/31 05:58:00;;;;;;;5.15;3.28;;;;;;;;;;5108668;27;20027;-54
2023/08/31 06:00:26;;;;;;;8.23;3.85;;;;;;;;;;5114575;27;20027;-57
2023/08/31 06:02:52;;;;;;;4.22;3.35;;;;;;;;;;5092192;28;20031;-55
2023/08/31 06:05:18;;;;;;;6.65;3.35;;;;;;;;;;5114971;27;20031;-54
2023/08/31 06:07:44;;;;;;;3.67;3.05;;;;;;;;;;5117086;27;20027;-56
2023/08/31 06:10:11;;;;;;;6.70;3.13;;;;;;;;;;5094858;27;20385;-54
2023/08/31 06:12:37;;;;;;;5.00;3.55;;;;;;;;;;5113541;27;20031;-54
2023/08/31 06:15:03;;;;;;;4.82;2.90;;;;;;;;;;5115075;27;20034;-55
2023/08/31 06:17:29;;;;;;;5.72;3.67;;;;;;;;;;5120897;27;20422;-53
2023/08/31 06:19:55;;;;;;;4.30;2.88;;;;;;;;;;5098400;27;20081;-57
2023/08/31 06:25:24;;;;;;;7.63;3.33;;;;;;;;;;5110076;28;20039;-55
2023/08/31 06:27:51;;;;;;;9.27;3.00;;;;;;;;;;5119259;27;20079;-53
2023/08/31 06:30:18;;;;;;;5.43;3.42;;;;;;;;;;5130350;27;20018;-58
2023/08/31 06:32:44;;;;;;;4.70;2.70;;;;;;;;;;5113617;27;20086;-63
2023/08/31 06:35:12;;;;;;;5.15;2.65;;;;;;;;;;5118954;27;20099;-61
2023/08/31 06:37:38;;;;;;;5.53;2.85;;;;;;;;;;5118799;27;20032;-67
2023/08/31 06:40:05;;;;;;;4.05;3.25;;;;;;;;;;5109576;27;20103;-63
2023/08/31 06:42:31;;;;;;;5.00;3.15;;;;;;;;;;5120502;27;20388;-61
2023/08/31 06:44:57;;;;;;;5.32;3.17;;;;;;;;;;5134409;27;20440;-61
2023/08/31 06:47:23;;;;;;;6.97;3.25;;;;;;;;;;5129394;27;20077;-61
2023/08/31 06:49:50;;;;;;;7.38;3.38;;;;;;;;;;5119055;27;20024;-60
2023/08/31 06:52:16;;;;;;;4.60;2.95;;;;;;;;;;5114765;27;20019;-64
2023/08/31 06:54:42;;;;;;;6.18;2.95;;;;;;;;;;5126448;27;20064;-75
2023/08/31 06:57:08;;;;;;;6.63;2.85;;;;;;;;;;5117168;27;20015;-66
2023/08/31 06:59:34;;;;;;;4.97;2.60;;;;;;;;;;5132926;27;20030;-69
2023/08/31 07:02:00;;;;;;;5.53;3.38;;;;;;;;;;5097468;28;20031;-65
2023/08/31 07:04:27;;;;;;;6.75;4.05;;;;;;;;;;5119464;27;20039;-75
2023/08/31 07:06:53;;;;;;;7.28;3.58;;;;;;;;;;5126634;27;20023;-72
2023/08/31 07:09:19;;;;;;;7.35;3.70;;;;;;;;;;5102454;28;20106;-64
2023/08/31 07:11:45;;;;;;;7.50;4.40;;;;;;;;;;5118912;27;20108;-69
2023/08/31 07:14:11;;;;;;;5.28;3.55;;;;;;;;;;5114350;27;20131;-70
2023/08/31 07:16:37;;;;;;;5.22;3.15;;;;;;;;;;5122194;27;20106;-67
2023/08/31 07:19:03;;;;;;;3.17;2.88;;;;;;;;;;5123870;27;20035;-64
2023/08/31 07:21:29;;;;;;;6.57;3.33;;;;;;;;;;5114984;27;20023;-68
2023/08/31 07:23:55;;;;;;;3.75;2.92;;;;;;;;;;5130444;27;20031;-67
2023/08/31 07:26:22;;;;;;;6.30;3.80;;;;;;;;;;5130686;27;20103;-62
2023/08/31 07:28:48;;;;;;;11.35;4.35;;;;;;;;;;5124922;27;20027;-62
2023/08/31 07:31:14;;;;;;;6.00;3.40;;;;;;;;;;5130057;27;20453;-62
2023/08/31 07:33:40;;;;;;;7.50;3.67;;;;;;;;;;5112227;27;20023;-60
2023/08/31 07:36:06;;;;;;;10.43;3.92;;;;;;;;;;5134042;27;20019;-62
2023/08/31 07:38:32;;;;;;;6.80;3.75;;;;;;;;;;5133769;27;20019;-62
2023/08/31 07:40:59;;;;;;;4.25;3.42;;;;;;;;;;5128768;27;20027;-63
2023/08/31 07:43:26;;;;;;;4.80;3.08;;;;;;;;;;5133002;27;20027;-63
2023/08/31 07:45:53;;;;;;;5.65;3.10;;;;;;;;;;5129881;27;20104;-61
2023/08/31 07:48:19;;;;;;;5.50;2.72;;;;;;;;;;5130633;27;20015;-63
2023/08/31 07:50:45;;;;;;;5.88;3.58;;;;;;;;;;5133832;27;20027;-51
2023/08/31 07:53:12;;;;;;;5.63;3.78;;;;;;;;;;5117448;27;20027;-60
2023/08/31 07:55:39;;;;;;;6.78;3.30;;;;;;;;;;5122675;27;20043;-60
2023/08/31 07:58:05;;;;;;;6.20;2.83;;;;;;;;;;5129402;27;20012;-63
2023/08/31 08:00:30;;;;;;;4.28;2.65;;;;;;;;;;5109846;28;20114;-64
2023/08/31 08:02:56;;;;;;;2.92;2.25;;;;;;;;;;5116881;28;20437;-61
2023/08/31 08:05:22;;;;;;;5.40;2.50;;;;;;;;;;5129620;28;20023;-62
2023/08/31 08:07:48;;;;;;;2.97;2.50;;;;;;;;;;5111809;28;20052;-59
2023/08/31 08:10:14;;;;;;;6.60;2.25;;;;;;;;;;5128341;28;20027;-61
2023/08/31 08:12:45;;;;;;;4.85;3.10;;;;;;;;;;5123745;27;20011;-60
2023/08/31 08:15:11;;;;;;;8.45;2.95;;;;;;;;;;5125805;27;20046;-60
2023/08/31 08:17:37;;;;;;;7.95;3.10;;;;;;;;;;5117515;27;20028;-60
2023/08/31 08:20:03;;;;;;;6.93;2.75;;;;;;;;;;5116576;27;20031;-62
2023/08/31 08:22:30;;;;;;;6.50;2.75;;;;;;;;;;5125214;27;20023;-61
2023/08/31 08:24:56;;;;;;;6.38;3.17;;;;;;;;;;5132236;27;20123;-59
2023/08/31 08:27:21;;;;;;;4.88;2.60;;;;;;;;;;5128951;27;20051;-54
2023/08/31 08:29:47;;;;;;;7.75;3.25;;;;;;;;;;5136014;27;20480;-57
2023/08/31 08:32:13;;;;;;;3.97;2.45;;;;;;;;;;5122569;27;20024;-59
2023/08/31 08:34:40;;;;;;;5.25;3.33;;;;;;;;;;5133560;27;20028;-58
2023/08/31 08:37:05;;;;;;;5.55;3.05;;;;;;;;;;5131416;27;20023;-54
2023/08/31 08:39:31;;;;;;;5.32;2.78;;;;;;;;;;5132066;27;20023;-57
2023/08/31 08:41:58;;;;;;;5.18;2.35;;;;;;;;;;5137168;27;20162;-55
2023/08/31 08:44:32;;;;;;;5.43;2.78;;;;;;;;;;5135153;27;20035;-58
2023/08/31 08:46:59;;;;;;;5.43;3.03;;;;;;;;;;5098336;28;20124;-60
2023/08/31 08:49:26;;;;;;;7.15;2.33;;;;;;;;;;5131252;27;20102;-61
2023/08/31 08:51:52;;;;;;;4.97;2.75;;;;;;;;;;5135658;27;20015;-61
2023/08/31 08:54:19;;;;;;;4.80;2.75;;;;;;;;;;5116909;27;20024;-63
2023/08/31 08:56:45;;;;;;;5.63;2.47;;;;;;;;;;5118406;27;20024;-64
2023/08/31 08:59:13;;;;;;;4.45;2.40;;;;;;;;;;5115243;27;20020;-65
2023/08/31 09:01:39;;;;;;;3.60;1.90;;;;;;;;;;5104375;27;20027;-66
2023/08/31 09:04:06;;;;;;;8.95;2.55;;;;;;;;;;5108056;28;20047;-62
2023/08/31 09:06:32;;;;;;;7.30;2.50;;;;;;;;;;5121641;27;20023;-57
2023/08/31 09:08:58;;;;;;;4.00;2.17;;;;;;;;;;5108547;27;20023;-59
2023/08/31 09:11:26;;;;;;;5.05;2.28;;;;;;;;;;5109613;28;20100;-60
2023/08/31 09:13:52;;;;;;;4.32;2.47;;;;;;;;;;5111749;28;20034;-67
2023/08/31 09:16:28;;;;;;;5.43;2.95;;;;;;;;;;5098175;28;20055;-65
2023/08/31 09:18:58;;;;;;;6.55;3.30;;;;;;;;;;5122401;27;20024;-65
2023/08/31 09:21:37;;;;;;;3.63;2.33;;;;;;;;;;5135469;27;20023;-67
2023/08/31 09:24:07;;;;;;;5.10;3.05;;;;;;;;;;5136200;27;20039;-65
2023/08/31 09:26:37;;;;;;;6.63;2.50;;;;;;;;;;5129601;27;20031;-67
2023/08/31 09:29:04;;;;;;;7.75;3.05;;;;;;;;;;5121944;27;20041;-62
2023/08/31 09:31:31;;;;;;;6.30;2.78;;;;;;;;;;5112728;28;20023;-52
2023/08/31 09:33:57;;;;;;;5.82;2.33;;;;;;;;;;5134532;27;20141;-54
2023/08/31 09:36:23;;;;;;;4.03;2.50;;;;;;;;;;5129192;27;20275;-53
2023/08/31 09:38:49;;;;;;;3.78;2.50;;;;;;;;;;5136028;27;20015;-56
2023/08/31 09:41:15;;;;;;;3.85;2.28;;;;;;;;;;5135988;27;20042;-61
2023/08/31 09:43:41;;;;;;;5.15;2.72;;;;;;;;;;5103579;27;20059;-52
2023/08/31 09:46:09;;;;;;;4.50;2.58;;;;;;;;;;5133650;27;20057;-60
2023/08/31 09:48:37;;;;;;;6.72;3.33;;;;;;;;;;5118329;27;20031;-60
2023/08/31 09:51:04;;;;;;;4.50;3.28;;;;;;;;;;5126240;27;20521;-62
2023/08/31 09:53:31;;;;;;;9.85;3.17;;;;;;;;;;5131030;27;20111;-61
2023/08/31 09:55:58;;;;;;;7.65;2.88;;;;;;;;;;5129745;27;20480;-61
2023/08/31 09:58:24;;;;;;;7.13;2.58;;;;;;;;;;5135614;27;20035;-61
2023/08/31 10:00:51;;;;;;;7.50;2.63;;;;;;;;;;5108407;28;20020;-72
2023/08/31 10:03:17;;;;;;;4.32;2.33;;;;;;;;;;5126187;27;20042;-69
2023/08/31 10:05:43;;;;;;;3.60;2.00;;;;;;;;;;5135285;27;20064;-76
2023/08/31 10:08:10;;;;;;;6.45;2.30;;;;;;;;;;5104629;28;20020;-70
2023/08/31 10:10:37;;;;;;;3.67;2.20;;;;;;;;;;5133742;27;20023;-65
2023/08/31 10:13:05;;;;;;;2.80;2.05;;;;;;;;;;5135021;27;20042;-70
2023/08/31 10:15:37;;;;;;;6.30;1.98;;;;;;;;;;5135680;27;20408;-72
2023/08/31 10:18:05;;;;;;;5.45;2.50;;;;;;;;;;5135348;27;20468;-65
2023/08/31 10:20:31;;;;;;;6.07;2.35;;;;;;;;;;5113760;27;20028;-63
2023/08/31 10:23:06;;;;;;;5.03;2.95;;;;;;;;;;5130805;27;20020;-64
2023/08/31 10:25:54;;;;;;;3.53;3.20;;;;;;;;;;5115420;27;20039;-62
2023/08/31 10:28:21;;;;;;;9.18;2.97;;;;;;;;;;5120802;27;20035;-62
2023/08/31 10:31:05;;;;;;;5.90;2.50;;;;;;;;;;5113678;27;20030;-62
2023/08/31 10:33:32;;;;;;;4.93;1.95;;;;;;;;;;5134962;27;20072;-63
2023/08/31 10:35:58;;;;;;;2.42;2.15;;;;;;;;;;5129881;27;20063;-63
2023/08/31 10:38:27;;;;;;;6.43;2.75;;;;;;;;;;5132413;27;20037;-63
2023/08/31 10:41:08;;;;;;;2.95;2.55;;;;;;;;;;5105913;28;20024;-63
2023/08/31 10:43:45;;;;;;;8.30;2.40;;;;;;;;;;5118894;27;20128;-63
2023/08/31 10:46:31;;;;;;;5.38;2.08;;;;;;;;;;5135214;27;20034;-63
2023/08/31 10:49:00;;;;;;;8.73;2.13;;;;;;;;;;5132067;27;20052;-63
2023/08/31 10:51:26;;;;;;;3.70;2.67;;;;;;;;;;5134931;27;20023;-63
2023/08/31 10:53:52;;;;;;;4.68;2.40;;;;;;;;;;5122523;27;20107;-63
2023/08/31 10:56:19;;;;;;;7.20;2.70;;;;;;;;;;5134770;27;20114;-63
2023/08/31 10:59:01;;;;;;;4.20;2.20;;;;;;;;;;5134725;27;20021;-63
2023/08/31 11:01:46;;;;;;;6.85;2.58;;;;;;;;;;5124141;27;20045;-63
2023/08/31 11:04:12;;;;;;;4.43;2.10;;;;;;;;;;5095521;28;20503;-63
2023/08/31 11:06:38;;;;;;;3.97;2.40;;;;;;;;;;5115044;27;20035;-63
2023/08/31 11:09:05;;;;;;;6.63;2.75;;;;;;;;;;5132897;27;20376;-63
2023/08/31 11:11:38;;;;;;;4.30;2.67;;;;;;;;;;5135425;27;20034;-63
2023/08/31 11:14:04;;;;;;;8.02;2.60;;;;;;;;;;5118452;27;20016;-63
2023/08/31 11:16:31;;;;;;;3.88;2.00;;;;;;;;;;5095703;28;20023;-63
2023/08/31 11:18:57;;;;;;;5.07;2.35;;;;;;;;;;5102649;28;20020;-63
2023/08/31 11:21:23;;;;;;;2.42;1.77;;;;;;;;;;5111038;27;20452;-63
2023/08/31 11:23:49;;;;;;;4.07;2.40;;;;;;;;;;5116741;27;20042;-63
2023/08/31 11:26:15;;;;;;;4.93;2.22;;;;;;;;;;5134212;27;20019;-63
2023/08/31 11:28:46;;;;;;;4.60;1.90;;;;;;;;;;5134493;27;20019;-63
2023/08/31 11:31:12;;;;;;;7.40;2.40;;;;;;;;;;5134462;27;20023;-63
2023/08/31 11:33:38;;;;;;;4.38;2.33;;;;;;;;;;5134258;27;20031;-63
2023/08/31 11:36:04;;;;;;;4.05;2.20;;;;;;;;;;5134329;27;20022;-63
2023/08/31 11:38:30;;;;;;;4.05;1.75;;;;;;;;;;5113623;27;20062;-63
2023/08/31 11:40:57;;;;;;;3.42;1.95;;;;;;;;;;5126534;27;20011;-63
2023/08/31 11:43:23;;;;;;;2.53;1.88;;;;;;;;;;5134064;27;20023;-63
2023/08/31 11:45:50;;;;;;;4.22;2.13;;;;;;;;;;5133736;27;20019;-63
2023/08/31 11:48:16;;;;;;;5.10;2.05;;;;;;;;;;5133314;27;20019;-63
2023/08/31 11:50:42;;;;;;;3.28;1.75;;;;;;;;;;5097583;28;20382;-63
2023/08/31 11:53:08;;;;;;;6.50;1.85;;;;;;;;;;5122994;27;20034;-63
2023/08/31 11:55:34;;;;;;;2.42;1.70;;;;;;;;;;5119987;27;20060;-63
2023/08/31 11:58:00;;;;;;;3.95;1.98;;;;;;;;;;5126305;27;20473;-63
2023/08/31 12:00:26;;;;;;;5.03;1.90;;;;;;;;;;5133825;27;20023;-63
2023/08/31 12:02:58;;;;;;;4.25;1.90;;;;;;;;;;5102925;28;20094;-63
2023/08/31 12:05:24;;;;;;;4.65;1.77;;;;;;;;;;5132770;28;20031;-63
2023/08/31 12:07:52;;;;;;;3.75;2.83;;;;;;;;;;5133750;28;20357;-63
2023/08/31 12:10:18;;;;;;;4.63;1.80;;;;;;;;;;5133478;28;20446;-63
2023/08/31 12:18:51;;;;;;;2.88;1.40;;;;;;;;;;5098727;28;20534;-63
2023/08/31 12:21:21;;;;;;;3.42;1.70;;;;;;;;;;5094106;28;20016;-63
2023/08/31 12:23:47;;;;;;;2.67;1.48;;;;;;;;;;5092686;28;20047;-63
2023/08/31 12:26:13;;;;;;;4.80;1.70;;;;;;;;;;5092661;28;20020;-63
2023/08/31 12:28:39;;;;;;;3.85;1.63;;;;;;;;;;5092845;28;20456;-63
2023/08/31 12:31:05;;;;;;;3.25;1.65;;;;;;;;;;5098998;28;20019;-63
2023/08/31 12:33:31;;;;;;;3.60;2.30;;;;;;;;;;5113759;28;20461;-63
2023/08/31 12:35:56;;;;;;;5.18;1.88;;;;;;;;;;5126438;28;20028;-63
2023/08/31 12:38:22;;;;;;;3.75;2.22;;;;;;;;;;5095616;28;20030;-63
2023/08/31 12:40:48;;;;;;;2.70;1.95;;;;;;;;;;5124865;28;20023;-63
2023/08/31 12:43:16;;;;;;;4.05;1.80;;;;;;;;;;5096160;28;20030;-64
2023/08/31 12:45:42;;;;;;;5.10;2.22;;;;;;;;;;5110429;28;20027;-64
2023/08/31 12:48:08;;;;;;;2.83;2.00;;;;;;;;;;5100467;28;20429;-63
2023/08/31 12:50:34;;;;;;;1.80;1.70;;;;;;;;;;5106300;28;20045;-64
2023/08/31 12:53:00;;;;;;;4.75;2.45;;;;;;;;;;5101372;28;20020;-64
2023/08/31 12:55:26;;;;;;;4.57;1.80;;;;;;;;;;5103033;28;20385;-63
2023/08/31 12:57:52;;;;;;;1.98;1.77;;;;;;;;;;5095799;28;20024;-64
2023/08/31 13:00:19;;;;;;;4.13;1.83;;;;;;;;;;5094709;28;20031;-64
2023/08/31 13:02:45;;;;;;;2.40;2.03;;;;;;;;;;5096466;28;20028;-63
2023/08/31 13:05:11;;;;;;;3.17;2.15;;;;;;;;;;5116942;27;20096;-64
2023/08/31 13:07:38;;;;;;;1.95;1.63;;;;;;;;;;5108926;28;20107;-64
2023/08/31 13:10:04;;;;;;;3.65;1.63;;;;;;;;;;5096004;28;20031;-63
2023/08/31 13:12:34;;;;;;;2.97;2.33;;;;;;;;;;5083801;28;20076;-65
2023/08/31 13:15:00;;;;;;;4.20;2.08;;;;;;;;;;5103932;28;20019;-64
2023/08/31 13:17:27;;;;;;;2.40;2.20;;;;;;;;;;5095814;28;20473;-64
2023/08/31 13:19:59;;;;;;;3.50;2.17;;;;;;;;;;5096961;28;20024;-64
2023/08/31 13:22:26;;;;;;;3.00;2.00;;;;;;;;;;5089299;28;20039;-64
2023/08/31 13:24:52;;;;;;;2.35;1.70;;;;;;;;;;5104669;27;20499;-64
2023/08/31 13:27:18;;;;;;;3.78;2.40;;;;;;;;;;5126139;27;20098;-63
2023/08/31 13:29:44;;;;;;;2.97;2.10;;;;;;;;;;5136446;27;20062;-63
2023/08/31 13:32:10;;;;;;;5.95;2.42;;;;;;;;;;5136544;27;20023;-64
2023/08/31 13:34:37;;;;;;;4.32;1.98;;;;;;;;;;5136464;27;20106;-63
2023/08/31 13:37:03;;;;;;;2.28;1.58;;;;;;;;;;5136268;27;20019;-63
2023/08/31 13:39:31;;;;;;;2.15;1.95;;;;;;;;;;5136452;27;20430;-64
2023/08/31 13:41:57;;;;;;;3.13;2.10;;;;;;;;;;5131445;27;20015;-64
2023/08/31 13:44:23;;;;;;;2.40;1.98;;;;;;;;;;5129159;27;20023;-64
2023/08/31 13:46:49;;;;;;;3.63;2.47;;;;;;;;;;5136116;27;20051;-64
2023/08/31 13:49:16;;;;;;;3.90;2.42;;;;;;;;;;5125651;27;20038;-63
2023/08/31 13:51:42;;;;;;;4.85;2.65;;;;;;;;;;5135238;27;20023;-64
2023/08/31 13:54:08;;;;;;;4.35;2.10;;;;;;;;;;5132860;27;20030;-64
2023/08/31 13:56:35;;;;;;;2.90;2.08;;;;;;;;;;5119766;27;20021;-64
2023/08/31 13:59:01;;;;;;;2.97;2.63;;;;;;;;;;5097983;28;20089;-64
2023/08/31 14:01:27;;;;;;;3.85;2.60;;;;;;;;;;5094652;28;20422;-64
2023/08/31 14:03:53;;;;;;;3.08;2.13;;;;;;;;;;5102842;28;20032;-64
2023/08/31 14:06:19;;;;;;;2.28;2.17;;;;;;;;;;5094700;28;20035;-64
2023/08/31 14:08:45;;;;;;;5.50;2.40;;;;;;;;;;5094935;28;20031;-64
2023/08/31 14:11:11;;;;;;;3.55;2.40;;;;;;;;;;5122912;27;20019;-64
2023/08/31 14:13:37;;;;;;;3.08;2.00;;;;;;;;;;5107599;28;20051;-64
2023/08/31 14:16:03;;;;;;;2.22;2.03;;;;;;;;;;5100650;28;20118;-64
2023/08/31 14:18:31;;;;;;;3.38;1.77;;;;;;;;;;5094844;28;20374;-63
2023/08/31 14:21:00;;;;;;;7.28;2.30;;;;;;;;;;5094782;28;20028;-63
2023/08/31 14:23:27;;;;;;;2.15;1.77;;;;;;;;;;5094577;28;20023;-63
2023/08/31 14:25:53;;;;;;;2.65;2.05;;;;;;;;;;5085136;28;20032;-64
2023/08/31 14:28:19;;;;;;;5.07;2.50;;;;;;;;;;5094422;28;20031;-64
2023/08/31 14:30:45;;;;;;;3.85;1.92;;;;;;;;;;5086385;28;20028;-64
2023/08/31 14:33:11;;;;;;;6.20;2.10;;;;;;;;;;5110376;28;20372;-64
2023/08/31 14:35:37;;;;;;;2.75;2.10;;;;;;;;;;5094728;28;20035;-64
2023/08/31 14:41:07;;;;;;;2.35;2.10;;;;;;;;;;5094177;28;20423;-65
2023/08/31 14:43:33;;;;;;;4.85;2.60;;;;;;;;;;5089981;28;20110;-58
2023/08/31 14:46:00;;;;;;;2.65;2.00;;;;;;;;;;5109318;27;20489;-57
2023/08/31 14:48:27;;;;;;;2.70;1.90;;;;;;;;;;5102082;28;20027;-56
2023/08/31 14:50:53;;;;;;;2.30;1.52;;;;;;;;;;5096402;28;20492;-59
2023/08/31 14:53:19;;;;;;;3.35;1.90;;;;;;;;;;5105157;27;20031;-61